Time,TemperatureF,DewpointF,PressureIn,WindDirection,WindDirectionDegrees,WindSpeedMPH,WindSpeedGustMPH,Humidity,HourlyPrecipIn,Conditions,Clouds,dailyrainin,SoftwareType,DateUTC
2013-06-24 00:01:00,68.9,67.4,29.94,SE,135,1.3,2.0,95,0.00,,,0.00,VWS V14.01,2013-06-24 05:01:00,
2013-06-24 00:06:00,68.7,67.2,29.94,SSE,158,0.0,0.9,95,0.00,,,0.00,VWS V14.01,2013-06-24 05:06:00,
2013-06-24 00:11:00,68.7,67.2,29.94,East,90,1.3,1.3,95,0.00,,,0.00,VWS V14.01,2013-06-24 05:11:00,
2013-06-24 00:16:00,68.7,67.2,29.94,SE,135,0.0,0.0,95,0.00,,,0.00,VWS V14.01,2013-06-24 05:16:00,
2013-06-24 00:21:00,68.7,67.2,29.97,SE,135,0.0,1.6,95,0.00,,,0.00,VWS V14.01,2013-06-24 05:21:00,
2013-06-24 00:26:00,68.5,67.1,29.97,SE,135,0.0,0.0,95,0.00,,,0.00,VWS V14.01,2013-06-24 05:26:00,
2013-06-24 00:32:00,68.4,66.9,29.97,SE,135,0.0,0.0,95,0.00,,,0.00,VWS V14.01,2013-06-24 05:32:00,
2013-06-24 00:37:00,68.2,66.7,29.94,NNW,338,0.0,0.0,95,0.00,,,0.00,VWS V14.01,2013-06-24 05:37:00,
2013-06-24 00:42:00,68.0,66.5,29.94,NNW,338,0.0,0.0,95,0.00,,,0.00,VWS V14.01,2013-06-24 05:42:00,
2013-06-24 00:47:00,67.6,66.5,29.94,NNW,338,0.0,0.0,96,0.00,,,0.00,VWS V14.01,2013-06-24 05:47:00,
2013-06-24 00:52:00,67.6,66.5,29.94,South,180,0.0,0.0,96,0.00,,,0.00,VWS V14.01,2013-06-24 05:52:00,
2013-06-24 00:57:00,67.3,66.1,29.94,South,180,0.0,0.0,96,0.00,,,0.00,VWS V14.01,2013-06-24 05:57:00,
2013-06-24 01:02:00,67.1,65.9,29.94,South,180,0.0,0.0,96,0.00,,,0.00,VWS V14.01,2013-06-24 06:02:00,
2013-06-24 01:07:00,66.9,65.8,29.94,South,180,0.0,0.0,96,0.00,,,0.00,VWS V14.01,2013-06-24 06:07:00,
2013-06-24 01:12:00,66.6,65.4,29.94,South,180,0.0,0.0,96,0.00,,,0.00,VWS V14.01,2013-06-24 06:12:00,
2013-06-24 01:17:00,66.4,65.2,29.94,South,180,0.0,0.0,96,0.00,,,0.00,VWS V14.01,2013-06-24 06:17:00,
2013-06-24 01:22:00,66.2,65.0,29.94,South,180,0.0,0.0,96,0.00,,,0.00,VWS V14.01,2013-06-24 06:22:00,
2013-06-24 01:27:00,66.0,65.2,29.94,South,180,0.0,0.0,97,0.00,,,0.00,VWS V14.01,2013-06-24 06:27:00,
2013-06-24 01:32:00,65.8,65.0,29.94,South,180,0.0,0.0,97,0.00,,,0.00,VWS V14.01,2013-06-24 06:32:00,
2013-06-24 01:37:00,65.7,64.8,29.94,South,180,0.0,0.0,97,0.00,,,0.00,VWS V14.01,2013-06-24 06:37:00,
2013-06-24 01:42:00,65.7,64.8,29.94,South,180,0.0,0.0,97,0.00,,,0.00,VWS V14.01,2013-06-24 06:42:00,
2013-06-24 01:47:00,65.5,64.6,29.94,South,180,0.0,0.0,97,0.00,,,0.00,VWS V14.01,2013-06-24 06:47:00,
2013-06-24 01:52:00,65.5,64.6,29.94,South,180,0.0,0.0,97,0.00,,,0.00,VWS V14.01,2013-06-24 06:52:00,
2013-06-24 01:57:00,65.3,64.4,29.94,South,180,0.0,0.0,97,0.00,,,0.00,VWS V14.01,2013-06-24 06:57:00,
2013-06-24 02:03:00,65.1,64.2,29.94,South,180,0.0,0.0,97,0.00,,,0.00,VWS V14.01,2013-06-24 07:03:00,
2013-06-24 02:08:00,64.9,64.1,29.94,South,180,0.0,0.0,97,0.00,,,0.00,VWS V14.01,2013-06-24 07:08:00,
2013-06-24 02:13:00,64.8,63.9,29.94,South,180,0.0,0.0,97,0.00,,,0.00,VWS V14.01,2013-06-24 07:13:00,
2013-06-24 02:18:00,64.6,63.7,29.94,South,180,0.0,0.0,97,0.00,,,0.00,VWS V14.01,2013-06-24 07:18:00,
2013-06-24 02:23:00,64.4,63.5,29.94,South,180,0.0,0.0,97,0.00,,,0.00,VWS V14.01,2013-06-24 07:23:00,
2013-06-24 02:28:00,64.4,63.5,29.94,South,180,0.0,0.0,97,0.00,,,0.00,VWS V14.01,2013-06-24 07:28:00,
2013-06-24 02:33:00,64.4,63.8,29.94,WNW,292,1.1,2.0,98,0.00,,,0.00,VWS V14.01,2013-06-24 07:33:00,
2013-06-24 02:38:00,64.4,63.8,29.94,WNW,292,0.0,0.0,98,0.00,,,0.00,VWS V14.01,2013-06-24 07:38:00,
2013-06-24 02:44:00,64.4,63.8,29.94,WNW,292,0.0,0.0,98,0.00,,,0.00,VWS V14.01,2013-06-24 07:44:00,
2013-06-24 02:49:00,64.2,63.7,29.94,WNW,292,0.0,0.0,98,0.00,,,0.00,VWS V14.01,2013-06-24 07:49:00,
2013-06-24 02:54:00,64.2,63.7,29.94,WNW,292,0.0,0.0,98,0.00,,,0.00,VWS V14.01,2013-06-24 07:54:00,
2013-06-24 02:59:00,64.2,63.7,29.94,WNW,292,0.0,0.0,98,0.00,,,0.00,VWS V14.01,2013-06-24 07:59:00,
2013-06-24 03:04:00,64.2,63.7,29.94,WNW,292,0.0,0.0,98,0.00,,,0.00,VWS V14.01,2013-06-24 08:04:00,
2013-06-24 03:09:00,64.0,63.5,29.94,WNW,292,0.0,0.0,98,0.00,,,0.00,VWS V14.01,2013-06-24 08:09:00,
2013-06-24 03:15:00,64.0,63.5,29.94,WNW,292,0.0,0.0,98,0.00,,,0.00,VWS V14.01,2013-06-24 08:15:00,
2013-06-24 03:20:00,64.0,63.5,29.94,WNW,292,0.0,0.0,98,0.00,,,0.00,VWS V14.01,2013-06-24 08:20:00,
2013-06-24 03:25:00,64.0,63.5,29.94,WNW,292,0.0,0.0,98,0.00,,,0.00,VWS V14.01,2013-06-24 08:25:00,
2013-06-24 03:30:00,64.0,63.5,29.94,WNW,292,0.0,0.0,98,0.00,,,0.00,VWS V14.01,2013-06-24 08:30:00,
2013-06-24 03:35:00,63.9,63.3,29.94,WNW,292,0.0,0.0,98,0.00,,,0.00,VWS V14.01,2013-06-24 08:35:00,
2013-06-24 03:40:00,63.9,63.3,29.94,WNW,292,0.0,0.0,98,0.00,,,0.00,VWS V14.01,2013-06-24 08:40:00,
2013-06-24 03:45:00,63.9,63.3,29.94,WNW,292,0.0,0.0,98,0.00,,,0.00,VWS V14.01,2013-06-24 08:45:00,
2013-06-24 03:50:00,63.7,63.1,29.97,WNW,292,0.0,0.0,98,0.00,,,0.00,VWS V14.01,2013-06-24 08:50:00,
2013-06-24 03:55:00,63.5,62.9,29.97,WNW,292,0.0,0.0,98,0.00,,,0.00,VWS V14.01,2013-06-24 08:55:00,
2013-06-24 04:00:00,63.5,62.9,29.97,WNW,292,0.0,0.0,98,0.00,,,0.00,VWS V14.01,2013-06-24 09:00:00,
2013-06-24 04:05:00,63.3,62.8,29.94,WNW,292,0.0,0.0,98,0.00,,,0.00,VWS V14.01,2013-06-24 09:05:00,
2013-06-24 04:10:00,63.1,62.6,29.94,WNW,292,0.0,0.0,98,0.00,,,0.00,VWS V14.01,2013-06-24 09:10:00,
2013-06-24 04:15:00,63.1,62.6,29.94,WNW,292,0.0,0.0,98,0.00,,,0.00,VWS V14.01,2013-06-24 09:15:00,
2013-06-24 04:20:00,63.0,62.4,29.94,WNW,292,0.0,0.0,98,0.00,,,0.00,VWS V14.01,2013-06-24 09:20:00,
2013-06-24 04:25:00,63.0,62.4,29.94,WNW,292,0.0,0.0,98,0.00,,,0.00,VWS V14.01,2013-06-24 09:25:00,
2013-06-24 04:30:00,63.0,62.4,29.94,WNW,292,0.0,0.0,98,0.00,,,0.00,VWS V14.01,2013-06-24 09:30:00,
2013-06-24 04:35:00,62.8,62.2,29.94,WNW,292,0.0,0.0,98,0.00,,,0.00,VWS V14.01,2013-06-24 09:35:00,
2013-06-24 04:41:00,62.6,62.0,29.94,WNW,292,0.0,0.0,98,0.00,,,0.00,VWS V14.01,2013-06-24 09:41:00,
2013-06-24 04:46:00,62.6,62.0,29.94,WNW,292,0.0,0.0,98,0.00,,,0.00,VWS V14.01,2013-06-24 09:46:00,
2013-06-24 04:51:00,62.6,62.0,29.94,WNW,292,0.0,0.0,98,0.00,,,0.00,VWS V14.01,2013-06-24 09:51:00,
2013-06-24 04:56:00,62.4,61.8,29.94,WNW,292,0.0,0.0,98,0.00,,,0.00,VWS V14.01,2013-06-24 09:56:00,
2013-06-24 05:01:00,62.2,61.7,29.94,WNW,292,0.0,0.0,98,0.00,,,0.00,VWS V14.01,2013-06-24 10:01:00,
2013-06-24 05:06:00,62.2,61.7,29.94,WNW,292,0.0,0.0,98,0.00,,,0.00,VWS V14.01,2013-06-24 10:06:00,
2013-06-24 05:11:00,62.2,61.7,29.94,WNW,292,0.0,0.0,98,0.00,,,0.00,VWS V14.01,2013-06-24 10:11:00,
2013-06-24 05:16:00,62.1,61.5,29.94,WNW,292,0.0,0.0,98,0.00,,,0.00,VWS V14.01,2013-06-24 10:16:00,
2013-06-24 05:21:00,62.1,61.5,29.94,WNW,292,0.0,0.0,98,0.00,,,0.00,VWS V14.01,2013-06-24 10:21:00,
2013-06-24 05:26:00,62.1,61.5,29.94,WNW,292,0.0,0.0,98,0.00,,,0.00,VWS V14.01,2013-06-24 10:26:00,
2013-06-24 05:31:00,61.9,61.3,29.94,WNW,292,0.0,0.0,98,0.00,,,0.00,VWS V14.01,2013-06-24 10:31:00,
2013-06-24 05:36:00,61.9,61.3,29.94,WNW,292,0.0,0.0,98,0.00,,,0.00,VWS V14.01,2013-06-24 10:36:00,
2013-06-24 05:41:00,61.9,61.3,29.94,WNW,292,0.0,0.0,98,0.00,,,0.00,VWS V14.01,2013-06-24 10:41:00,
2013-06-24 05:47:00,61.9,61.3,29.94,WNW,292,0.0,0.0,98,0.00,,,0.00,VWS V14.01,2013-06-24 10:47:00,
2013-06-24 05:52:00,61.9,61.3,29.94,WNW,292,0.0,0.0,98,0.00,,,0.00,VWS V14.01,2013-06-24 10:52:00,
2013-06-24 05:57:00,61.9,61.3,29.94,WNW,292,0.0,0.0,98,0.00,,,0.00,VWS V14.01,2013-06-24 10:57:00,
2013-06-24 06:02:00,62.2,61.7,29.94,WNW,292,0.0,0.0,98,0.00,,,0.00,VWS V14.01,2013-06-24 11:02:00,
2013-06-24 06:07:00,62.4,61.8,29.94,WNW,292,0.0,0.0,98,0.00,,,0.00,VWS V14.01,2013-06-24 11:07:00,
2013-06-24 06:12:00,62.4,61.8,29.94,WNW,292,0.0,0.0,98,0.00,,,0.00,VWS V14.01,2013-06-24 11:12:00,
2013-06-24 06:17:00,62.6,62.0,29.94,WNW,292,0.0,0.0,98,0.00,,,0.00,VWS V14.01,2013-06-24 11:17:00,
2013-06-24 06:22:00,63.0,62.4,29.94,WNW,292,0.0,0.0,98,0.00,,,0.00,VWS V14.01,2013-06-24 11:22:00,
2013-06-24 06:27:00,63.1,62.6,29.94,WNW,292,0.0,0.0,98,0.00,,,0.00,VWS V14.01,2013-06-24 11:27:00,
2013-06-24 06:32:00,63.5,62.9,29.94,WNW,292,0.0,0.0,98,0.00,,,0.00,VWS V14.01,2013-06-24 11:32:00,
2013-06-24 06:37:00,64.0,63.5,29.94,WNW,292,0.0,0.0,98,0.00,,,0.00,VWS V14.01,2013-06-24 11:37:00,
2013-06-24 06:42:00,64.6,64.0,29.94,WNW,292,0.0,0.0,98,0.00,,,0.00,VWS V14.01,2013-06-24 11:42:00,
2013-06-24 06:47:00,65.1,64.5,29.94,WNW,292,0.0,0.0,98,0.00,,,0.00,VWS V14.01,2013-06-24 11:47:00,
2013-06-24 06:52:00,65.5,64.9,29.94,WNW,292,0.0,0.0,98,0.00,,,0.00,VWS V14.01,2013-06-24 11:52:00,
2013-06-24 06:57:00,66.0,65.4,29.94,WNW,292,0.0,0.0,98,0.00,,,0.00,VWS V14.01,2013-06-24 11:57:00,
2013-06-24 07:02:00,66.4,65.8,29.94,WNW,292,1.1,1.1,98,0.00,,,0.00,VWS V14.01,2013-06-24 12:02:00,
2013-06-24 07:07:00,66.7,66.2,29.97,WNW,292,0.0,0.0,98,0.00,,,0.00,VWS V14.01,2013-06-24 12:07:00,
2013-06-24 07:12:00,67.3,66.7,29.97,WNW,292,0.0,0.0,98,0.00,,,0.00,VWS V14.01,2013-06-24 12:12:00,
2013-06-24 07:18:00,67.8,67.2,29.97,WNW,292,0.0,0.0,98,0.00,,,0.00,VWS V14.01,2013-06-24 12:18:00,
2013-06-24 07:23:00,68.5,68.0,29.97,WNW,292,0.0,0.0,98,0.00,,,0.00,VWS V14.01,2013-06-24 12:23:00,
2013-06-24 07:28:00,69.3,68.7,29.97,WNW,292,0.0,0.0,98,0.00,,,0.00,VWS V14.01,2013-06-24 12:28:00,
2013-06-24 07:33:00,70.2,69.6,29.97,WNW,292,0.0,0.0,98,0.00,,,0.00,VWS V14.01,2013-06-24 12:33:00,
2013-06-24 07:38:00,70.9,70.3,29.94,WNW,292,0.0,0.0,98,0.00,,,0.00,VWS V14.01,2013-06-24 12:38:00,
2013-06-24 07:43:00,71.2,70.3,29.94,WNW,292,0.0,0.0,97,0.00,,,0.00,VWS V14.01,2013-06-24 12:43:00,
2013-06-24 07:48:00,71.8,70.6,29.94,WNW,292,0.0,0.0,96,0.00,,,0.00,VWS V14.01,2013-06-24 12:48:00,
2013-06-24 07:53:00,72.3,71.1,29.94,WNW,292,0.0,0.0,96,0.00,,,0.00,VWS V14.01,2013-06-24 12:53:00,
2013-06-24 07:58:00,72.7,71.2,29.94,South,180,1.3,2.0,95,0.00,,,0.00,VWS V14.01,2013-06-24 12:58:00,
2013-06-24 08:04:00,73.2,71.4,29.94,SSW,202,0.0,0.0,94,0.00,,,0.00,VWS V14.01,2013-06-24 13:04:00,
2013-06-24 08:09:00,73.6,71.8,29.97,WNW,292,0.9,1.1,94,0.00,,,0.00,VWS V14.01,2013-06-24 13:09:00,
2013-06-24 08:14:00,74.1,71.7,29.97,SSE,158,0.0,0.0,92,0.00,,,0.00,VWS V14.01,2013-06-24 13:14:00,
2013-06-24 08:19:00,74.5,71.7,29.97,SSE,158,0.9,1.1,91,0.00,,,0.00,VWS V14.01,2013-06-24 13:19:00,
2013-06-24 08:24:00,74.7,71.5,29.94,SSE,158,1.6,2.2,90,0.00,,,0.00,VWS V14.01,2013-06-24 13:24:00,
2013-06-24 08:29:00,74.7,71.5,29.94,SSE,158,0.9,1.3,90,0.00,,,0.00,VWS V14.01,2013-06-24 13:29:00,
2013-06-24 08:35:00,75.6,71.8,29.94,NW,315,0.9,2.7,88,0.00,,,0.00,VWS V14.01,2013-06-24 13:35:00,
2013-06-24 08:40:00,75.9,71.8,29.94,NW,315,2.0,2.0,87,0.00,,,0.00,VWS V14.01,2013-06-24 13:40:00,
2013-06-24 08:45:00,76.8,72.7,29.94,NW,315,1.3,1.3,87,0.00,,,0.00,VWS V14.01,2013-06-24 13:45:00,
2013-06-24 08:50:00,77.0,72.5,29.94,NW,315,0.0,0.9,86,0.00,,,0.00,VWS V14.01,2013-06-24 13:50:00,
2013-06-24 08:55:00,77.0,72.5,29.94,East,90,1.1,1.1,86,0.00,,,0.00,VWS V14.01,2013-06-24 13:55:00,
2013-06-24 09:00:00,78.3,73.7,29.94,ESE,112,1.3,1.3,86,0.00,,,0.00,VWS V14.01,2013-06-24 14:00:00,
2013-06-24 09:05:00,78.1,72.9,29.94,ESE,112,3.4,3.4,84,0.00,,,0.00,VWS V14.01,2013-06-24 14:05:00,
2013-06-24 09:10:00,78.4,73.2,29.94,East,90,3.6,4.0,84,0.00,,,0.00,VWS V14.01,2013-06-24 14:10:00,
2013-06-24 09:15:00,78.3,72.7,29.94,NNE,22,2.7,3.1,83,0.00,,,0.00,VWS V14.01,2013-06-24 14:15:00,
2013-06-24 09:20:00,78.6,72.3,29.94,ESE,112,1.6,1.6,81,0.00,,,0.00,VWS V14.01,2013-06-24 14:20:00,
2013-06-24 09:25:00,79.2,72.8,29.94,ESE,112,2.7,3.6,81,0.00,,,0.00,VWS V14.01,2013-06-24 14:25:00,
2013-06-24 09:30:00,79.2,72.1,29.94,NNE,22,1.1,2.5,79,0.00,,,0.00,VWS V14.01,2013-06-24 14:30:00,
2013-06-24 09:35:00,79.3,72.3,29.94,ENE,68,1.6,3.6,79,0.00,,,0.00,VWS V14.01,2013-06-24 14:35:00,
2013-06-24 09:41:00,79.2,71.7,29.94,ENE,68,2.5,2.5,78,0.00,,,0.00,VWS V14.01,2013-06-24 14:41:00,
2013-06-24 09:46:00,79.0,71.9,29.94,SSW,202,1.3,2.0,79,0.00,,,0.00,VWS V14.01,2013-06-24 14:46:00,
2013-06-24 09:51:00,79.2,72.1,29.94,East,90,2.5,3.6,79,0.00,,,0.00,VWS V14.01,2013-06-24 14:51:00,
2013-06-24 09:56:00,79.2,71.3,29.94,NNE,22,0.9,1.3,77,0.00,,,0.00,VWS V14.01,2013-06-24 14:56:00,
2013-06-24 10:01:00,79.5,71.7,29.94,East,90,1.3,1.3,77,0.00,,,0.00,VWS V14.01,2013-06-24 15:01:00,
2013-06-24 10:06:00,79.7,71.1,29.94,NNE,22,2.5,2.5,75,0.00,,,0.00,VWS V14.01,2013-06-24 15:06:00,
2013-06-24 10:11:00,80.2,70.4,29.94,NE,45,3.1,3.1,72,0.00,,,0.00,VWS V14.01,2013-06-24 15:11:00,
2013-06-24 10:16:00,80.6,71.6,29.94,NE,45,2.7,3.1,74,0.00,,,0.00,VWS V14.01,2013-06-24 15:16:00,
2013-06-24 10:21:00,81.1,72.5,29.94,ENE,68,2.5,3.1,75,0.00,,,0.00,VWS V14.01,2013-06-24 15:21:00,
2013-06-24 10:26:00,81.3,72.6,29.94,East,90,2.5,2.7,75,0.00,,,0.00,VWS V14.01,2013-06-24 15:26:00,
2013-06-24 10:31:00,81.0,71.1,29.94,NE,45,2.5,3.1,72,0.00,,,0.00,VWS V14.01,2013-06-24 15:31:00,
2013-06-24 10:36:00,80.4,71.8,29.97,WSW,248,3.1,3.1,75,0.00,,,0.00,VWS V14.01,2013-06-24 15:36:00,
2013-06-24 10:42:00,81.0,71.5,29.97,WNW,292,4.3,4.3,73,0.00,,,0.00,VWS V14.01,2013-06-24 15:42:00,
2013-06-24 10:47:00,81.3,71.4,29.97,NNW,338,3.4,3.4,72,0.00,,,0.00,VWS V14.01,2013-06-24 15:47:00,
2013-06-24 10:52:00,81.1,72.5,29.97,WNW,292,1.3,2.2,75,0.00,,,0.00,VWS V14.01,2013-06-24 15:52:00,
2013-06-24 10:57:00,81.1,71.7,29.97,NE,45,2.5,3.1,73,0.00,,,0.00,VWS V14.01,2013-06-24 15:57:00,
2013-06-24 11:02:00,81.3,72.2,29.97,SW,225,4.0,4.0,74,0.00,,,0.00,VWS V14.01,2013-06-24 16:02:00,
2013-06-24 11:07:00,81.7,73.4,29.94,NE,45,2.5,2.5,76,0.00,,,0.00,VWS V14.01,2013-06-24 16:07:00,
2013-06-24 11:12:00,81.5,72.4,29.94,WNW,292,3.1,3.1,74,0.00,,,0.00,VWS V14.01,2013-06-24 16:12:00,
2013-06-24 11:17:00,81.5,73.2,29.94,SSE,158,1.3,1.3,76,0.00,,,0.00,VWS V14.01,2013-06-24 16:17:00,
2013-06-24 11:22:00,82.2,73.5,29.94,ENE,68,0.0,2.2,75,0.00,,,0.00,VWS V14.01,2013-06-24 16:22:00,
2013-06-24 11:27:00,82.0,71.7,29.94,South,180,1.6,3.6,71,0.00,,,0.00,VWS V14.01,2013-06-24 16:27:00,
2013-06-24 11:32:00,81.5,71.2,29.94,SW,225,2.5,2.5,71,0.00,,,0.00,VWS V14.01,2013-06-24 16:32:00,
2013-06-24 11:37:00,81.3,70.6,29.94,WNW,292,2.7,3.6,70,0.00,,,0.00,VWS V14.01,2013-06-24 16:37:00,
2013-06-24 11:43:00,81.3,71.8,29.94,NE,45,1.1,2.0,73,0.00,,,0.00,VWS V14.01,2013-06-24 16:43:00,
2013-06-24 11:48:00,81.5,71.6,29.94,WNW,292,2.0,3.6,72,0.00,,,0.00,VWS V14.01,2013-06-24 16:48:00,
2013-06-24 11:53:00,81.3,71.8,29.91,NE,45,2.7,4.3,73,0.00,,,0.00,VWS V14.01,2013-06-24 16:53:00,
2013-06-24 11:58:00,82.0,73.3,29.91,SSE,158,0.9,2.5,75,0.00,,,0.00,VWS V14.01,2013-06-24 16:58:00,
2013-06-24 12:03:00,82.6,72.7,29.91,NNW,338,4.0,4.0,72,0.00,,,0.00,VWS V14.01,2013-06-24 17:03:00,
2013-06-24 12:08:00,81.7,72.2,29.91,South,180,1.6,1.6,73,0.00,,,0.00,VWS V14.01,2013-06-24 17:08:00,
2013-06-24 12:13:00,82.2,73.1,29.91,WNW,292,5.8,5.8,74,0.00,,,0.00,VWS V14.01,2013-06-24 17:13:00,
2013-06-24 12:18:00,82.4,73.3,29.91,ESE,112,2.9,5.8,74,0.00,,,0.00,VWS V14.01,2013-06-24 17:18:00,
2013-06-24 12:23:00,81.9,72.4,29.94,SSE,158,5.4,5.4,73,0.00,,,0.00,VWS V14.01,2013-06-24 17:23:00,
2013-06-24 12:28:00,82.0,72.5,29.94,WSW,248,2.9,4.7,73,0.00,,,0.00,VWS V14.01,2013-06-24 17:28:00,
2013-06-24 12:33:00,81.7,71.8,29.94,SE,135,3.1,6.5,72,0.00,,,0.00,VWS V14.01,2013-06-24 17:33:00,
2013-06-24 12:38:00,80.2,70.4,29.94,South,180,3.6,4.7,72,0.00,,,0.00,VWS V14.01,2013-06-24 17:38:00,
2013-06-24 12:43:00,79.9,70.9,29.94,West,270,1.3,4.9,74,0.00,,,0.00,VWS V14.01,2013-06-24 17:43:00,
2013-06-24 12:48:00,79.7,71.5,29.94,NNW,338,2.0,3.4,76,0.00,,,0.00,VWS V14.01,2013-06-24 17:48:00,
2013-06-24 12:53:00,79.7,71.9,29.94,SSE,158,3.4,4.7,77,0.00,,,0.00,VWS V14.01,2013-06-24 17:53:00,
2013-06-24 12:58:00,79.2,71.7,29.94,South,180,1.6,3.1,78,0.00,,,0.00,VWS V14.01,2013-06-24 17:58:00,
2013-06-24 13:03:00,78.6,71.6,29.94,NNW,338,2.7,4.0,79,0.00,,,0.00,VWS V14.01,2013-06-24 18:03:00,
2013-06-24 13:09:00,77.9,71.2,29.94,SSW,202,0.9,2.2,80,0.00,,,0.00,VWS V14.01,2013-06-24 18:09:00,
2013-06-24 13:14:00,77.5,71.2,29.94,WSW,248,1.6,3.1,81,0.00,,,0.00,VWS V14.01,2013-06-24 18:14:00,
2013-06-24 13:19:00,77.2,71.6,29.94,SW,225,2.9,2.9,83,0.00,,,0.00,VWS V14.01,2013-06-24 18:19:00,
2013-06-24 13:24:00,77.0,71.8,29.91,ENE,68,2.7,4.3,84,0.00,,,0.00,VWS V14.01,2013-06-24 18:24:00,
2013-06-24 13:29:00,77.9,72.7,29.91,South,180,2.0,4.3,84,0.00,,,0.00,VWS V14.01,2013-06-24 18:29:00,
2013-06-24 13:35:00,79.0,73.0,29.94,SSW,202,2.7,3.1,82,0.00,,,0.00,VWS V14.01,2013-06-24 18:35:00,
2013-06-24 13:40:00,79.3,73.0,29.94,SE,135,1.6,1.6,81,0.00,,,0.00,VWS V14.01,2013-06-24 18:40:00,
2013-06-24 13:45:00,79.2,72.1,29.94,NNE,22,2.0,2.0,79,0.00,,,0.00,VWS V14.01,2013-06-24 18:45:00,
2013-06-24 13:50:00,78.4,72.1,29.94,South,180,5.4,5.4,81,0.00,,,0.00,VWS V14.01,2013-06-24 18:50:00,
2013-06-24 13:55:00,78.1,71.8,29.94,North,0,0.9,0.9,81,0.00,,,0.00,VWS V14.01,2013-06-24 18:55:00,
2013-06-24 14:00:00,77.9,72.0,29.94,SE,135,1.6,1.6,82,0.00,,,0.00,VWS V14.01,2013-06-24 19:00:00,
2013-06-24 14:05:00,77.9,72.0,29.94,SW,225,3.6,5.8,82,0.00,,,0.00,VWS V14.01,2013-06-24 19:05:00,
2013-06-24 14:10:00,77.7,71.1,29.94,SSW,202,2.7,4.3,80,0.00,,,0.00,VWS V14.01,2013-06-24 19:10:00,
2013-06-24 14:15:00,77.9,71.6,29.94,NW,315,2.2,4.0,81,0.00,,,0.00,VWS V14.01,2013-06-24 19:15:00,
2013-06-24 14:20:00,78.4,72.1,29.91,WNW,292,3.8,3.8,81,0.00,,,0.00,VWS V14.01,2013-06-24 19:20:00,
2013-06-24 14:25:00,78.6,71.9,29.91,WNW,292,2.9,2.9,80,0.00,,,0.00,VWS V14.01,2013-06-24 19:25:00,
2013-06-24 14:30:00,78.4,71.8,29.91,NW,315,3.4,4.0,80,0.00,,,0.00,VWS V14.01,2013-06-24 19:30:00,
2013-06-24 14:35:00,78.3,71.2,29.91,South,180,3.8,3.8,79,0.00,,,0.00,VWS V14.01,2013-06-24 19:35:00,
2013-06-24 14:40:00,78.4,71.4,29.91,NNW,338,1.6,2.5,79,0.00,,,0.00,VWS V14.01,2013-06-24 19:40:00,
2013-06-24 14:45:00,78.4,71.4,29.91,SW,225,1.1,2.5,79,0.00,,,0.00,VWS V14.01,2013-06-24 19:45:00,
2013-06-24 14:50:00,78.3,70.5,29.91,SW,225,4.3,4.3,77,0.00,,,0.00,VWS V14.01,2013-06-24 19:50:00,
2013-06-24 14:55:00,78.3,71.2,29.91,SW,225,0.0,0.0,79,0.00,,,0.00,VWS V14.01,2013-06-24 19:55:00,
2013-06-24 15:00:00,78.1,71.4,29.91,South,180,3.4,3.4,80,0.00,,,0.00,VWS V14.01,2013-06-24 20:00:00,
2013-06-24 15:05:00,78.1,71.4,29.88,WNW,292,2.2,2.5,80,0.00,,,0.00,VWS V14.01,2013-06-24 20:05:00,
2013-06-24 15:10:00,78.4,71.8,29.88,SW,225,1.1,1.3,80,0.00,,,0.00,VWS V14.01,2013-06-24 20:10:00,
2013-06-24 15:15:00,79.2,71.3,29.88,SSE,158,1.3,5.6,77,0.00,,,0.00,VWS V14.01,2013-06-24 20:15:00,
2013-06-24 15:21:00,79.5,72.1,29.88,South,180,2.7,2.7,78,0.00,,,0.00,VWS V14.01,2013-06-24 20:21:00,
2013-06-24 15:26:00,79.7,72.2,29.88,West,270,2.5,2.5,78,0.00,,,0.00,VWS V14.01,2013-06-24 20:26:00,
2013-06-24 15:31:00,79.7,71.9,29.88,SE,135,3.4,3.4,77,0.00,,,0.00,VWS V14.01,2013-06-24 20:31:00,
2013-06-24 15:36:00,79.5,71.3,29.88,SW,225,1.3,2.2,76,0.00,,,0.00,VWS V14.01,2013-06-24 20:36:00,
2013-06-24 15:41:00,79.2,71.3,29.88,South,180,0.0,1.6,77,0.00,,,0.00,VWS V14.01,2013-06-24 20:41:00,
2013-06-24 15:46:00,79.0,70.8,29.88,SW,225,0.0,3.6,76,0.00,,,0.00,VWS V14.01,2013-06-24 20:46:00,
2013-06-24 15:51:00,78.8,71.0,29.88,ENE,68,0.0,2.5,77,0.00,,,0.00,VWS V14.01,2013-06-24 20:51:00,
2013-06-24 15:56:00,78.8,70.6,29.88,East,90,2.5,3.6,76,0.00,,,0.00,VWS V14.01,2013-06-24 20:56:00,
2013-06-24 16:01:00,78.8,70.6,29.88,ESE,112,2.0,2.0,76,0.00,,,0.00,VWS V14.01,2013-06-24 21:01:00,
2013-06-24 16:07:00,79.0,71.2,29.88,SE,135,1.3,1.3,77,0.00,,,0.00,VWS V14.01,2013-06-24 21:07:00,
2013-06-24 16:12:00,79.2,70.9,29.88,SE,135,2.0,2.7,76,0.00,,,0.00,VWS V14.01,2013-06-24 21:12:00,
2013-06-24 16:17:00,79.2,71.3,29.88,SSW,202,2.5,2.5,77,0.00,,,0.00,VWS V14.01,2013-06-24 21:17:00,
2013-06-24 16:22:00,79.3,71.9,29.88,WNW,292,0.9,1.6,78,0.00,,,0.00,VWS V14.01,2013-06-24 21:22:00,
2013-06-24 16:27:00,79.3,71.1,29.88,SSE,158,1.6,4.0,76,0.00,,,0.00,VWS V14.01,2013-06-24 21:27:00,
2013-06-24 16:32:00,79.2,70.2,29.88,SSW,202,2.9,2.9,74,0.00,,,0.00,VWS V14.01,2013-06-24 21:32:00,
2013-06-24 16:37:00,79.2,69.8,29.88,North,0,3.4,3.4,73,0.00,,,0.00,VWS V14.01,2013-06-24 21:37:00,
2013-06-24 16:42:00,79.0,70.0,29.88,South,180,2.2,2.2,74,0.00,,,0.00,VWS V14.01,2013-06-24 21:42:00,
2013-06-24 16:47:00,79.0,70.0,29.88,ESE,112,0.9,0.9,74,0.00,,,0.00,VWS V14.01,2013-06-24 21:47:00,
2013-06-24 16:52:00,79.0,70.0,29.88,West,270,2.7,3.8,74,0.00,,,0.00,VWS V14.01,2013-06-24 21:52:00,
2013-06-24 16:57:00,79.0,70.8,29.88,South,180,0.0,1.6,76,0.00,,,0.00,VWS V14.01,2013-06-24 21:57:00,
2013-06-24 17:02:00,79.0,70.0,29.88,North,0,1.6,2.2,74,0.00,,,0.00,VWS V14.01,2013-06-24 22:02:00,
2013-06-24 17:07:00,78.8,70.2,29.88,SSE,158,2.0,2.0,75,0.00,,,0.00,VWS V14.01,2013-06-24 22:07:00,
2013-06-24 17:12:00,78.8,70.2,29.88,SE,135,0.9,2.5,75,0.00,,,0.00,VWS V14.01,2013-06-24 22:12:00,
2013-06-24 17:17:00,78.6,70.4,29.88,NW,315,0.0,1.3,76,0.00,,,0.00,VWS V14.01,2013-06-24 22:17:00,
2013-06-24 17:22:00,78.4,70.6,29.88,North,0,2.5,2.7,77,0.00,,,0.00,VWS V14.01,2013-06-24 22:22:00,
2013-06-24 17:27:00,78.4,70.2,29.88,ENE,68,3.4,3.4,76,0.00,,,0.00,VWS V14.01,2013-06-24 22:27:00,
2013-06-24 17:33:00,78.3,70.5,29.88,SSW,202,1.6,1.6,77,0.00,,,0.00,VWS V14.01,2013-06-24 22:33:00,
2013-06-24 17:38:00,78.3,70.1,29.88,SSE,158,3.6,3.6,76,0.00,,,0.00,VWS V14.01,2013-06-24 22:38:00,
2013-06-24 17:43:00,78.3,70.1,29.88,ENE,68,0.0,0.0,76,0.00,,,0.00,VWS V14.01,2013-06-24 22:43:00,
2013-06-24 17:48:00,78.1,68.7,29.88,WNW,292,2.5,3.4,73,0.00,,,0.00,VWS V14.01,2013-06-24 22:48:00,
2013-06-24 17:53:00,77.9,69.3,29.88,SE,135,2.0,2.0,75,0.00,,,0.00,VWS V14.01,2013-06-24 22:53:00,
2013-06-24 17:58:00,77.7,68.0,29.88,WNW,292,1.6,2.0,72,0.00,,,0.00,VWS V14.01,2013-06-24 22:58:00,
2013-06-24 18:03:00,77.7,69.2,29.88,SE,135,0.0,0.0,75,0.00,,,0.00,VWS V14.01,2013-06-24 23:03:00,
2013-06-24 18:08:00,77.7,69.2,29.88,NE,45,2.0,2.0,75,0.00,,,0.00,VWS V14.01,2013-06-24 23:08:00,
2013-06-24 18:13:00,77.5,68.6,29.88,South,180,2.5,2.5,74,0.00,,,0.00,VWS V14.01,2013-06-24 23:13:00,
2013-06-24 18:18:00,77.4,68.0,29.88,SSW,202,1.6,2.9,73,0.00,,,0.00,VWS V14.01,2013-06-24 23:18:00,
2013-06-24 18:23:00,77.4,68.0,29.88,SSW,202,2.5,2.9,73,0.00,,,0.00,VWS V14.01,2013-06-24 23:23:00,
2013-06-24 18:28:00,77.2,67.9,29.88,ESE,112,0.9,2.0,73,0.00,,,0.00,VWS V14.01,2013-06-24 23:28:00,
2013-06-24 18:33:00,77.4,68.8,29.88,ESE,112,0.0,0.0,75,0.00,,,0.00,VWS V14.01,2013-06-24 23:33:00,
2013-06-24 18:38:00,77.5,69.4,29.88,South,180,2.2,2.2,76,0.00,,,0.00,VWS V14.01,2013-06-24 23:38:00,
2013-06-24 18:43:00,77.7,68.8,29.88,ENE,68,0.0,1.3,74,0.00,,,0.00,VWS V14.01,2013-06-24 23:43:00,
2013-06-24 18:48:00,77.7,69.2,29.88,ENE,68,0.0,0.0,75,0.00,,,0.00,VWS V14.01,2013-06-24 23:48:00,
2013-06-24 18:53:00,77.5,69.0,29.85,ENE,68,0.0,1.1,75,0.00,,,0.00,VWS V14.01,2013-06-24 23:53:00,
2013-06-24 18:58:00,77.2,69.8,29.85,ENE,68,0.0,0.0,78,0.00,,,0.00,VWS V14.01,2013-06-24 23:58:00,
2013-06-24 19:03:00,76.8,69.4,29.85,ENE,68,0.0,0.0,78,0.00,,,0.00,VWS V14.01,2013-06-25 00:03:00,
2013-06-24 19:09:00,76.5,69.5,29.88,ENE,68,0.0,0.0,79,0.00,,,0.00,VWS V14.01,2013-06-25 00:09:00,
2013-06-24 19:14:00,75.9,69.3,29.88,ENE,68,0.0,0.0,80,0.00,,,0.00,VWS V14.01,2013-06-25 00:14:00,
2013-06-24 19:19:00,75.6,69.7,29.88,ENE,68,0.0,0.0,82,0.00,,,0.00,VWS V14.01,2013-06-25 00:19:00,
2013-06-24 19:24:00,75.2,69.7,29.88,ENE,68,0.0,0.0,83,0.00,,,0.00,VWS V14.01,2013-06-25 00:24:00,
2013-06-24 19:29:00,74.5,69.3,29.88,SE,135,0.0,1.3,84,0.00,,,0.00,VWS V14.01,2013-06-25 00:29:00,
2013-06-24 19:34:00,74.1,69.0,29.88,South,180,2.5,3.4,84,0.00,,,0.00,VWS V14.01,2013-06-25 00:34:00,
2013-06-24 19:39:00,73.8,68.6,29.88,South,180,2.9,2.9,84,0.00,,,0.00,VWS V14.01,2013-06-25 00:39:00,
2013-06-24 19:44:00,73.6,68.1,29.88,WNW,292,2.9,3.4,83,0.00,,,0.00,VWS V14.01,2013-06-25 00:44:00,
2013-06-24 19:49:00,73.4,67.2,29.88,NNW,338,1.1,3.8,81,0.00,,,0.00,VWS V14.01,2013-06-25 00:49:00,
2013-06-24 19:54:00,73.2,67.4,29.88,ENE,68,0.0,2.0,82,0.00,,,0.00,VWS V14.01,2013-06-25 00:54:00,
2013-06-24 20:00:00,73.0,67.2,29.88,WNW,292,0.0,0.0,82,0.00,,,0.00,VWS V14.01,2013-06-25 01:00:00,
2013-06-24 20:05:00,72.9,66.3,29.88,West,270,0.9,2.7,80,0.00,,,0.00,VWS V14.01,2013-06-25 01:05:00,
2013-06-24 20:11:00,72.7,66.5,29.88,East,90,0.0,0.9,81,0.00,,,0.00,VWS V14.01,2013-06-25 01:11:00,
2013-06-24 20:16:00,72.5,66.0,29.88,South,180,0.0,1.3,80,0.00,,,0.00,VWS V14.01,2013-06-25 01:16:00,
2013-06-24 20:21:00,72.1,65.6,29.88,South,180,1.3,1.6,80,0.00,,,0.00,VWS V14.01,2013-06-25 01:21:00,
2013-06-24 20:27:00,72.0,65.5,29.88,East,90,0.0,2.0,80,0.00,,,0.00,VWS V14.01,2013-06-25 01:27:00,
2013-06-24 20:32:00,71.8,65.3,29.88,SSE,158,0.0,3.6,80,0.00,,,0.00,VWS V14.01,2013-06-25 01:32:00,
2013-06-24 20:37:00,71.6,65.5,29.88,SE,135,0.0,1.1,81,0.00,,,0.00,VWS V14.01,2013-06-25 01:37:00,
2013-06-24 20:42:00,71.1,65.3,29.88,SW,225,0.0,0.9,82,0.00,,,0.00,VWS V14.01,2013-06-25 01:42:00,
2013-06-24 20:48:00,70.7,65.6,29.88,SW,225,0.0,0.0,84,0.00,,,0.00,VWS V14.01,2013-06-25 01:48:00,
2013-06-24 20:53:00,70.3,65.3,29.88,SW,225,0.0,0.0,84,0.00,,,0.00,VWS V14.01,2013-06-25 01:53:00,
2013-06-24 20:58:00,70.0,65.3,29.88,SSW,202,1.3,1.3,85,0.00,,,0.00,VWS V14.01,2013-06-25 01:58:00,
2013-06-24 21:03:00,69.6,65.2,29.88,South,180,0.0,1.1,86,0.00,,,0.00,VWS V14.01,2013-06-25 02:03:00,
2013-06-24 21:08:00,69.4,65.4,29.88,SE,135,0.9,2.0,87,0.00,,,0.00,VWS V14.01,2013-06-25 02:08:00,
2013-06-24 21:14:00,69.3,65.2,29.88,SSE,158,0.0,2.0,87,0.00,,,0.00,VWS V14.01,2013-06-25 02:14:00,
2013-06-24 21:19:00,69.1,65.1,29.88,SSE,158,0.0,0.0,87,0.00,,,0.00,VWS V14.01,2013-06-25 02:19:00,
2013-06-24 21:24:00,68.9,64.9,29.88,SSE,158,0.0,2.0,87,0.00,,,0.00,VWS V14.01,2013-06-25 02:24:00,
2013-06-24 21:29:00,68.9,65.2,29.88,SSE,158,0.0,0.0,88,0.00,,,0.00,VWS V14.01,2013-06-25 02:29:00,
2013-06-24 21:34:00,68.5,64.8,29.88,SSE,158,0.0,0.0,88,0.00,,,0.00,VWS V14.01,2013-06-25 02:34:00,
2013-06-24 21:40:00,68.5,65.2,29.88,SSE,158,0.0,0.0,89,0.00,,,0.00,VWS V14.01,2013-06-25 02:40:00,
2013-06-24 21:45:00,68.2,65.1,29.88,SSE,158,0.0,0.0,90,0.00,,,0.00,VWS V14.01,2013-06-25 02:45:00,
2013-06-24 21:50:00,68.0,65.0,29.85,SSE,158,0.0,0.0,90,0.00,,,0.00,VWS V14.01,2013-06-25 02:50:00,
2013-06-24 21:55:00,67.8,64.8,29.85,SSE,158,0.0,0.0,90,0.00,,,0.00,VWS V14.01,2013-06-25 02:55:00,
2013-06-24 22:01:00,67.6,64.9,29.85,SSE,158,0.0,0.0,91,0.00,,,0.00,VWS V14.01,2013-06-25 03:01:00,
2013-06-24 22:06:00,67.5,64.8,29.88,SSE,158,0.0,0.0,91,0.00,,,0.00,VWS V14.01,2013-06-25 03:06:00,
2013-06-24 22:12:00,67.3,64.9,29.88,SSE,158,0.0,0.0,92,0.00,,,0.00,VWS V14.01,2013-06-25 03:12:00,
2013-06-24 22:17:00,66.9,64.5,29.88,SSE,158,0.0,0.0,92,0.00,,,0.00,VWS V14.01,2013-06-25 03:17:00,
2013-06-24 22:22:00,66.7,64.3,29.88,SSE,158,0.0,0.0,92,0.00,,,0.00,VWS V14.01,2013-06-25 03:22:00,
2013-06-24 22:28:00,66.4,64.3,29.88,SSE,158,0.0,0.0,93,0.00,,,0.00,VWS V14.01,2013-06-25 03:28:00,
2013-06-24 22:33:00,66.2,64.1,29.88,SSE,158,0.0,0.0,93,0.00,,,0.00,VWS V14.01,2013-06-25 03:33:00,
2013-06-24 22:39:00,65.8,63.8,29.88,SSE,158,0.0,0.0,93,0.00,,,0.00,VWS V14.01,2013-06-25 03:39:00,
2013-06-24 22:44:00,65.7,63.9,29.88,SSE,158,0.0,0.0,94,0.00,,,0.00,VWS V14.01,2013-06-25 03:44:00,
2013-06-24 22:49:00,65.3,63.5,29.88,SSE,158,0.0,0.0,94,0.00,,,0.00,VWS V14.01,2013-06-25 03:49:00,
2013-06-24 22:54:00,65.1,63.7,29.88,SSE,158,0.0,0.0,95,0.00,,,0.00,VWS V14.01,2013-06-25 03:54:00,
2013-06-24 22:59:00,64.8,63.3,29.88,SSE,158,0.0,0.0,95,0.00,,,0.00,VWS V14.01,2013-06-25 03:59:00,
2013-06-24 23:01:00,64.8,63.3,29.88,SSE,158,0.0,0.0,95,0.00,,,0.00,VWS V14.01,2013-06-25 04:01:00,
2013-06-24 23:02:00,64.8,63.3,29.88,SSE,158,0.0,0.0,95,0.00,,,0.00,VWS V14.01,2013-06-25 04:02:00,
2013-06-24 23:07:00,64.6,63.1,29.88,SSE,158,0.0,0.0,95,0.00,,,0.00,VWS V14.01,2013-06-25 04:07:00,
2013-06-24 23:12:00,64.4,62.9,29.88,SSE,158,0.0,0.0,95,0.00,,,0.00,VWS V14.01,2013-06-25 04:12:00,
2013-06-24 23:18:00,64.4,63.2,29.88,SSE,158,0.0,0.0,96,0.00,,,0.00,VWS V14.01,2013-06-25 04:18:00,
2013-06-24 23:23:00,64.4,63.2,29.88,SSE,158,0.0,0.0,96,0.00,,,0.00,VWS V14.01,2013-06-25 04:23:00,
2013-06-24 23:28:00,64.4,63.2,29.88,SSE,158,0.0,0.0,96,0.00,,,0.00,VWS V14.01,2013-06-25 04:28:00,
2013-06-24 23:33:00,64.4,63.2,29.88,SSE,158,0.0,0.0,96,0.00,,,0.00,VWS V14.01,2013-06-25 04:33:00,
2013-06-24 23:38:00,64.6,63.7,29.88,ENE,68,1.1,2.7,97,0.00,,,0.00,VWS V14.01,2013-06-25 04:38:00,
2013-06-24 23:43:00,64.9,64.1,29.88,WNW,292,0.0,1.3,97,0.00,,,0.00,VWS V14.01,2013-06-25 04:43:00,
2013-06-24 23:48:00,65.1,64.5,29.88,WNW,292,0.9,1.6,98,0.00,,,0.00,VWS V14.01,2013-06-25 04:48:00,
2013-06-24 23:53:00,65.1,64.2,29.91,WNW,292,0.0,0.0,97,0.00,,,0.00,VWS V14.01,2013-06-25 04:53:00,
2013-06-24 23:58:00,65.1,64.2,29.91,WNW,292,0.0,0.0,97,0.00,,,0.00,VWS V14.01,2013-06-25 04:58:00,